createdAt,value
2022-08-26T00:02:20.963Z,21.12
2022-08-26T00:06:24.701Z,21.00
2022-08-26T00:10:27.799Z,21.00
2022-08-26T00:14:31.606Z,20.89
2022-08-26T00:18:38.783Z,20.86
2022-08-26T00:22:43.883Z,20.88
2022-08-26T00:26:47.758Z,20.81
2022-08-26T00:30:51.609Z,20.76
2022-08-26T00:34:56.528Z,20.71
2022-08-26T00:38:59.998Z,20.68
2022-08-26T00:43:09.313Z,20.73
2022-08-26T00:47:22.497Z,20.69
2022-08-26T00:51:29.948Z,20.67
2022-08-26T00:55:38.199Z,20.62
2022-08-26T00:59:41.771Z,20.54
2022-08-26T01:03:47.043Z,20.57
2022-08-26T01:07:51.565Z,20.58
2022-08-26T01:11:57.457Z,20.49
2022-08-26T01:16:03.792Z,20.63
2022-08-26T01:20:13.677Z,20.57
2022-08-26T01:24:19.420Z,20.59
2022-08-26T01:28:28.222Z,20.63
2022-08-26T01:32:34.012Z,20.65
2022-08-26T01:36:38.361Z,20.56
2022-08-26T01:40:44.097Z,20.72
2022-08-26T01:50:49.239Z,20.66
2022-08-26T01:54:53.072Z,20.55
2022-08-26T01:59:00.542Z,20.48
2022-08-26T02:03:17.636Z,20.47
2022-08-26T02:07:22.577Z,20.47
2022-08-26T02:11:29.985Z,20.49
2022-08-26T02:15:34.578Z,20.34
2022-08-26T02:19:41.976Z,20.46
2022-08-26T02:23:45.594Z,20.44
2022-08-26T02:27:49.033Z,20.42
2022-08-26T02:31:55.795Z,20.42
2022-08-26T02:35:59.091Z,20.47
2022-08-26T02:40:03.118Z,20.46
2022-08-26T02:44:07.227Z,20.43
2022-08-26T02:48:13.954Z,20.50
2022-08-26T02:52:16.980Z,20.53
2022-08-26T02:56:19.961Z,20.42
2022-08-26T03:00:23.795Z,20.61
2022-08-26T03:04:28.319Z,20.55
2022-08-26T03:08:31.308Z,20.61
2022-08-26T03:12:34.335Z,20.51
2022-08-26T03:16:38.265Z,20.64
2022-08-26T03:20:42.507Z,20.52
2022-08-26T03:24:47.023Z,20.57
2022-08-26T03:29:04.037Z,20.44
2022-08-26T03:33:08.592Z,20.38
2022-08-26T03:37:13.762Z,20.34
2022-08-26T03:41:18.088Z,20.34
2022-08-26T03:45:21.913Z,20.47
2022-08-26T03:49:25.086Z,20.36
2022-08-26T03:53:33.316Z,20.37
2022-08-26T03:57:39.392Z,20.37
2022-08-26T04:01:42.496Z,20.36
2022-08-26T04:05:45.735Z,20.31
2022-08-26T04:09:50.343Z,20.40
2022-08-26T04:13:53.518Z,20.34
2022-08-26T04:17:57.516Z,20.47
2022-08-26T04:22:00.992Z,20.55
2022-08-26T04:26:05.875Z,20.44
2022-08-26T04:30:10.553Z,20.34
2022-08-26T04:34:14.222Z,20.40
2022-08-26T04:38:20.013Z,20.27
2022-08-26T04:42:26.097Z,20.35
2022-08-26T04:46:29.624Z,20.26
2022-08-26T04:50:32.998Z,20.29
2022-08-26T04:54:36.162Z,20.33
2022-08-26T04:58:41.324Z,20.34
2022-08-26T05:02:44.688Z,20.40
2022-08-26T05:06:48.293Z,20.50
2022-08-26T05:10:54.720Z,20.52
2022-08-26T05:15:00.417Z,20.51
2022-08-26T05:19:03.646Z,20.45
2022-08-26T05:23:06.887Z,20.47
2022-08-26T05:27:12.494Z,20.47
2022-08-26T05:31:19.015Z,20.52
2022-08-26T05:35:22.988Z,20.38
2022-08-26T05:39:26.163Z,20.33
2022-08-26T05:43:29.229Z,20.56
2022-08-26T05:47:34.595Z,20.50
2022-08-26T05:51:37.901Z,20.39
2022-08-26T05:55:44.863Z,20.53
2022-08-26T05:59:48.420Z,20.45
2022-08-26T06:03:57.066Z,20.46
2022-08-26T06:08:19.175Z,20.46
2022-08-26T06:12:22.524Z,20.61
2022-08-26T06:16:25.942Z,20.58
2022-08-26T06:20:32.085Z,20.46
2022-08-26T06:24:52.787Z,20.69
2022-08-26T06:28:56.292Z,20.65
2022-08-26T06:32:59.350Z,20.66
2022-08-26T06:37:06.373Z,20.63
2022-08-26T06:41:11.555Z,20.76
2022-08-26T06:45:14.615Z,20.76
2022-08-26T06:49:17.764Z,20.71
2022-08-26T06:53:22.124Z,20.64
2022-08-26T06:57:25.201Z,20.67
2022-08-26T07:01:30.607Z,20.72
2022-08-26T07:05:35.832Z,20.61
2022-08-26T07:09:40.133Z,20.58
2022-08-26T07:13:43.840Z,21.00
2022-08-26T07:17:47.006Z,20.96
2022-08-26T07:21:50.074Z,20.90
2022-08-26T07:25:54.484Z,21.10
2022-08-26T07:29:58.758Z,21.07
2022-08-26T07:34:02.016Z,20.92
2022-08-26T07:38:06.887Z,20.96
2022-08-26T07:42:13.107Z,21.01
2022-08-26T07:46:20.722Z,21.07
2022-08-26T07:50:49.988Z,21.13
2022-08-26T07:54:53.476Z,21.22
2022-08-26T07:58:57.918Z,21.48
2022-08-26T08:03:01.270Z,21.65
2022-08-26T08:07:04.421Z,21.65
2022-08-26T08:11:11.488Z,21.87
2022-08-26T08:15:17.133Z,21.77
2022-08-26T08:19:20.185Z,21.76
2022-08-26T08:23:25.154Z,21.93
2022-08-26T08:27:28.881Z,22.07
2022-08-26T08:35:57.555Z,22.11
2022-08-26T08:40:00.796Z,22.37
2022-08-26T08:44:05.415Z,22.24
2022-08-26T08:48:16.994Z,22.12
2022-08-26T08:52:29.845Z,22.16
2022-08-26T08:56:36.320Z,21.80
2022-08-26T09:00:46.471Z,21.94
2022-08-26T09:05:18.479Z,21.94
2022-08-26T09:09:25.087Z,22.11
2022-08-26T09:13:29.227Z,21.99
2022-08-26T09:17:43.007Z,22.10
2022-08-26T09:21:56.853Z,21.91
2022-08-26T09:26:02.130Z,22.12
2022-08-26T09:30:11.446Z,22.24
2022-08-26T09:34:17.979Z,21.90
2022-08-26T09:38:28.147Z,22.32
2022-08-26T09:42:31.284Z,21.99
2022-08-26T09:46:34.595Z,22.03
2022-08-26T09:50:39.570Z,21.65
2022-08-26T09:54:46.263Z,22.21
2022-08-26T09:58:49.714Z,21.80
2022-08-26T10:02:56.047Z,22.02
2022-08-26T10:07:04.907Z,21.92
2022-08-26T10:11:19.076Z,21.86
2022-08-26T10:15:26.472Z,22.08
2022-08-26T10:19:41.796Z,22.27
2022-08-26T10:24:03.243Z,22.06
2022-08-26T10:28:18.878Z,22.32
2022-08-26T10:32:27.773Z,22.25
2022-08-26T10:37:14.316Z,22.50
2022-08-26T10:41:24.695Z,22.44
2022-08-26T10:45:31.909Z,22.47
2022-08-26T10:49:35.025Z,21.91
2022-08-26T10:53:46.075Z,22.28
2022-08-26T10:58:04.723Z,22.32
2022-08-26T11:02:14.914Z,22.59
2022-08-26T11:06:23.952Z,22.54
2022-08-26T11:11:03.421Z,22.33
2022-08-26T11:15:08.340Z,22.14
2022-08-26T11:20:00.092Z,22.37
2022-08-26T11:24:07.694Z,22.37
2022-08-26T11:28:11.235Z,22.26
2022-08-26T11:32:26.386Z,22.31
2022-08-26T11:37:02.514Z,22.54
2022-08-26T11:41:11.599Z,22.63
2022-08-26T11:45:22.848Z,22.46
2022-08-26T11:49:28.326Z,22.38
2022-08-26T11:53:33.934Z,22.31
2022-08-26T11:57:45.042Z,22.49
2022-08-26T12:01:51.962Z,22.40
2022-08-26T12:05:55.586Z,22.31
2022-08-26T12:10:02.123Z,22.27
2022-08-26T12:14:09.865Z,22.40
2022-08-26T12:18:28.851Z,22.02
2022-08-26T12:22:36.067Z,22.41
2022-08-26T12:26:39.643Z,22.02
2022-08-26T12:30:59.693Z,22.10
2022-08-26T12:39:24.777Z,22.37
2022-08-26T12:43:40.053Z,22.39
2022-08-26T12:47:46.342Z,22.25
2022-08-26T12:51:51.325Z,22.13
2022-08-26T14:12:33.810Z,22.25
2022-08-26T14:16:58.982Z,22.40
2022-08-26T14:21:03.271Z,22.46
2022-08-26T14:25:07.032Z,22.38
2022-08-26T14:29:14.701Z,22.41
2022-08-26T14:33:23.311Z,22.53
2022-08-26T14:37:26.501Z,21.72
2022-08-26T14:41:31.358Z,21.88
2022-08-26T14:49:41.759Z,20.83
2022-08-26T14:54:02.299Z,21.05
2022-08-26T14:58:05.569Z,21.08
2022-08-26T15:02:13.639Z,20.73
2022-08-26T15:06:25.478Z,20.60
2022-08-26T15:10:28.471Z,20.77
2022-08-26T15:14:33.058Z,20.46
2022-08-26T15:18:37.755Z,20.55
2022-08-26T15:22:42.456Z,20.57
2022-08-26T15:26:46.803Z,20.38
2022-08-26T15:30:50.149Z,20.33
2022-08-26T15:34:54.672Z,20.60
2022-08-26T15:39:01.418Z,20.79
2022-08-26T15:43:18.454Z,20.40
2022-08-26T15:47:28.188Z,20.34
2022-08-26T15:51:35.500Z,20.47
2022-08-26T15:55:49.448Z,20.40
2022-08-26T15:59:52.890Z,20.40
2022-08-26T16:03:56.104Z,20.32
2022-08-26T16:08:02.041Z,20.09
2022-08-26T16:12:05.749Z,20.35
2022-08-26T16:16:12.521Z,20.50
2022-08-26T16:20:17.108Z,20.50
2022-08-26T16:24:24.797Z,20.41
2022-08-26T16:28:30.323Z,20.28
2022-08-26T16:32:33.424Z,20.47
2022-08-26T16:36:37.941Z,20.57
2022-08-26T16:40:42.391Z,20.78
2022-08-26T16:44:45.646Z,20.68
2022-08-26T16:48:48.916Z,20.70
2022-08-26T16:52:55.645Z,20.86
2022-08-26T16:57:00.257Z,21.01
2022-08-26T18:23:56.360Z,20.75
2022-08-26T18:27:59.411Z,20.66
2022-08-26T18:32:02.598Z,20.81
2022-08-26T18:36:06.232Z,20.65
2022-08-26T18:40:12.982Z,20.71
2022-08-26T18:44:18.552Z,20.55
2022-08-26T18:48:23.068Z,20.58
2022-08-26T18:52:26.147Z,20.66
2022-08-26T18:56:31.630Z,20.56
2022-08-26T19:00:34.854Z,20.47
2022-08-26T19:04:38.665Z,20.13
2022-08-26T19:08:44.618Z,19.96
2022-08-26T19:12:51.911Z,19.75
2022-08-26T19:16:55.583Z,19.77
2022-08-26T19:20:58.691Z,19.76
2022-08-26T19:25:01.896Z,19.79
2022-08-26T19:29:07.116Z,19.84
2022-08-26T19:33:11.583Z,19.82
2022-08-26T19:37:15.029Z,19.88
2022-08-26T19:41:20.458Z,20.00
2022-08-26T19:45:25.582Z,20.05
2022-08-26T19:49:28.783Z,20.06
2022-08-26T19:53:31.870Z,20.10
2022-08-26T19:57:35.487Z,20.10
2022-08-26T20:01:40.215Z,20.11
2022-08-26T20:05:43.755Z,20.14
2022-08-26T20:09:48.023Z,20.10
2022-08-26T20:13:51.347Z,20.05
2022-08-26T20:17:55.927Z,20.08
2022-08-26T20:21:59.117Z,19.97
2022-08-26T20:26:02.156Z,19.93
2022-08-26T20:30:09.295Z,19.86
2022-08-26T20:34:15.431Z,19.83
2022-08-26T20:38:21.615Z,19.74
2022-08-26T20:42:26.207Z,19.68
2022-08-26T20:46:29.641Z,19.61
2022-08-26T20:50:34.244Z,19.47
2022-08-26T20:54:37.308Z,19.49
2022-08-26T20:58:41.092Z,19.34
2022-08-26T21:02:44.186Z,19.28
2022-08-26T21:06:52.887Z,19.33
2022-08-26T21:10:56.248Z,19.43
2022-08-26T21:14:59.518Z,19.44
2022-08-26T21:19:02.620Z,19.45
2022-08-26T21:23:07.262Z,19.47
2022-08-26T21:27:10.357Z,19.43
2022-08-26T21:31:16.148Z,19.48
2022-08-26T21:35:19.234Z,19.49
2022-08-26T21:39:23.712Z,19.52
2022-08-26T21:43:35.595Z,19.46
2022-08-26T21:47:39.655Z,19.43
2022-08-26T21:51:46.178Z,19.35
2022-08-26T21:55:50.645Z,19.38
2022-08-26T21:59:54.017Z,19.31
2022-08-26T22:03:57.412Z,19.28
2022-08-26T22:08:00.451Z,19.26
2022-08-26T22:12:05.838Z,19.21
2022-08-26T22:16:10.009Z,19.21
2022-08-26T22:20:16.365Z,19.20
2022-08-26T22:24:21.844Z,19.21
2022-08-26T22:28:26.296Z,19.14
2022-08-26T22:32:29.325Z,19.07
2022-08-26T22:36:32.427Z,19.05
2022-08-26T22:40:36.274Z,19.00
2022-08-26T22:44:41.274Z,19.02
2022-08-26T22:48:44.842Z,18.92
2022-08-26T22:52:47.935Z,18.95
2022-08-26T22:56:51.029Z,18.84
2022-08-26T23:00:55.710Z,18.94
2022-08-26T23:04:58.818Z,18.83
2022-08-26T23:09:01.921Z,18.92
2022-08-26T23:13:07.775Z,18.86
2022-08-26T23:17:14.372Z,18.83
2022-08-26T23:21:17.467Z,18.75
2022-08-26T23:25:20.754Z,18.75
2022-08-26T23:29:23.999Z,18.77
2022-08-26T23:33:48.747Z,18.63
2022-08-26T23:37:53.106Z,18.64
2022-08-26T23:41:56.953Z,18.55
2022-08-26T23:46:00.201Z,18.59
2022-08-26T23:50:05.073Z,18.45
2022-08-26T23:54:07.329Z,18.46
2022-08-26T23:58:11.419Z,18.44
